createdAt,value
2023-05-10T00:00:07.809Z,99787.98
2023-05-10T00:00:53.486Z,99788.40
2023-05-10T00:01:26.595Z,99785.85
2023-05-10T00:01:59.829Z,99784.64
2023-05-10T00:02:33.015Z,99786.75
2023-05-10T00:03:06.581Z,99785.77
2023-05-10T00:03:40.081Z,99786.54
2023-05-10T00:04:13.250Z,99788.85
2023-05-10T00:04:46.455Z,99786.67
2023-05-10T00:05:19.784Z,99788.24
2023-05-10T00:05:53.022Z,99787.39
2023-05-10T00:06:26.298Z,99788.64
2023-05-10T00:06:59.456Z,99785.91
2023-05-10T00:07:32.505Z,99784.50
2023-05-10T00:08:05.712Z,99784.31
2023-05-10T00:08:38.995Z,99782.23
2023-05-10T00:09:12.178Z,99782.42
2023-05-10T00:09:45.487Z,99782.23
2023-05-10T00:10:18.859Z,99782.95
2023-05-10T00:10:53.526Z,99781.84
2023-05-10T00:11:26.722Z,99779.27
2023-05-10T00:12:00.119Z,99781.70
2023-05-10T00:12:33.318Z,99783.45
2023-05-10T00:13:06.609Z,99778.80
2023-05-10T00:13:39.875Z,99783.22
2023-05-10T00:14:13.119Z,99781.03
2023-05-10T00:14:46.507Z,99777.77
2023-05-10T00:15:19.555Z,99778.14
2023-05-10T00:15:52.631Z,99778.69
2023-05-10T00:16:25.811Z,99780.87
2023-05-10T00:16:59.141Z,99777.67
2023-05-10T00:17:32.401Z,99778.14
2023-05-10T00:18:05.567Z,99775.30
2023-05-10T00:18:38.740Z,99773.45
2023-05-10T00:19:12.088Z,99774.34
2023-05-10T00:19:45.324Z,99774.27
2023-05-10T00:20:18.742Z,99774.09
2023-05-10T00:20:52.152Z,99773.27
2023-05-10T00:21:25.402Z,99771.73
2023-05-10T00:21:58.608Z,99774.85
2023-05-10T00:22:32.066Z,99776.30
2023-05-10T00:23:05.273Z,99772.03
2023-05-10T00:23:38.751Z,99776.78
2023-05-10T00:24:12.032Z,99770.95
2023-05-10T00:24:45.434Z,99773.67
2023-05-10T00:25:18.686Z,99775.63
2023-05-10T00:25:51.994Z,99774.23
2023-05-10T00:26:25.191Z,99775.54
2023-05-10T00:26:58.387Z,99777.52
2023-05-10T00:27:31.516Z,99776.92
2023-05-10T00:28:04.934Z,99780.30
2023-05-10T00:28:37.930Z,99777.30
2023-05-10T00:29:11.072Z,99777.30
2023-05-10T00:29:44.133Z,99777.27
2023-05-10T00:30:17.449Z,99776.75
2023-05-10T00:30:50.852Z,99774.34
2023-05-10T00:31:24.049Z,99775.19
2023-05-10T00:31:57.526Z,99779.00
2023-05-10T00:32:30.512Z,99776.80
2023-05-10T00:33:04.255Z,99776.38
2023-05-10T00:33:37.583Z,99773.77
2023-05-10T00:34:10.639Z,99775.55
2023-05-10T00:34:43.876Z,99775.39
2023-05-10T00:35:17.274Z,99774.00
2023-05-10T00:35:50.503Z,99774.35
2023-05-10T00:36:23.731Z,99772.27
2023-05-10T00:36:57.389Z,99774.56
2023-05-10T00:37:30.831Z,99778.55
2023-05-10T00:38:04.069Z,99777.00
2023-05-10T00:38:37.250Z,99773.38
2023-05-10T00:39:10.335Z,99775.58
2023-05-10T00:39:43.502Z,99774.95
2023-05-10T00:40:16.939Z,99772.80
2023-05-10T00:40:50.371Z,99773.73
2023-05-10T00:41:23.944Z,99772.38
2023-05-10T00:41:57.189Z,99774.14
2023-05-10T00:42:30.220Z,99771.89
2023-05-10T00:43:03.356Z,99773.05
2023-05-10T00:43:36.927Z,99773.38
2023-05-10T00:44:10.291Z,99773.07
2023-05-10T00:44:43.548Z,99770.91
2023-05-10T00:45:17.055Z,99771.70
2023-05-10T00:45:50.887Z,99774.43
2023-05-10T00:46:24.564Z,99775.30
2023-05-10T00:46:57.664Z,99773.25
2023-05-10T00:47:31.005Z,99773.63
2023-05-10T00:48:05.039Z,99774.81
2023-05-10T00:48:38.307Z,99769.42
2023-05-10T00:49:11.642Z,99773.36
2023-05-10T00:49:45.291Z,99773.58
2023-05-10T00:50:18.769Z,99771.05
2023-05-10T00:50:52.136Z,99777.46
2023-05-10T00:51:25.598Z,99779.90
2023-05-10T00:51:58.883Z,99780.58
2023-05-10T00:52:32.453Z,99780.63
2023-05-10T00:53:05.760Z,99785.02
2023-05-10T00:53:39.093Z,99782.25
2023-05-10T00:54:12.937Z,99776.77
2023-05-10T00:54:46.228Z,99777.17
2023-05-10T00:55:19.701Z,99780.02
2023-05-10T00:55:52.944Z,99775.90
2023-05-10T00:56:26.687Z,99771.39
2023-05-10T00:56:59.999Z,99773.52
2023-05-10T00:57:33.168Z,99771.91
2023-05-10T00:58:06.808Z,99772.09
2023-05-10T00:58:41.128Z,99769.96
2023-05-10T00:59:14.183Z,99770.27
2023-05-10T00:59:47.469Z,99771.46
2023-05-10T01:00:20.936Z,99769.42
2023-05-10T01:00:54.732Z,99768.20
2023-05-10T01:01:29.068Z,99769.39
2023-05-10T01:02:02.872Z,99769.41
2023-05-10T01:02:36.580Z,99770.34
2023-05-10T01:03:10.818Z,99769.30
2023-05-10T01:03:43.994Z,99769.45
2023-05-10T01:04:17.245Z,99773.13
2023-05-10T01:04:50.739Z,99770.02
2023-05-10T01:05:24.082Z,99769.05
2023-05-10T01:05:57.177Z,99768.66
2023-05-10T01:06:30.396Z,99768.71
2023-05-10T01:07:03.703Z,99768.02
2023-05-10T01:07:37.039Z,99765.15
2023-05-10T01:08:10.253Z,99763.68
2023-05-10T01:08:43.641Z,99767.98
2023-05-10T01:09:16.907Z,99764.86
2023-05-10T01:09:50.075Z,99763.33
2023-05-10T01:10:23.466Z,99763.05
2023-05-10T01:10:56.693Z,99767.56
2023-05-10T01:11:30.172Z,99766.85
2023-05-10T01:12:04.126Z,99768.61
2023-05-10T01:12:38.927Z,99764.53
2023-05-10T01:13:12.561Z,99769.27
2023-05-10T01:13:47.630Z,99770.14
2023-05-10T01:14:21.530Z,99767.09
2023-05-10T01:14:54.914Z,99767.43
2023-05-10T01:15:28.095Z,99766.46
2023-05-10T01:16:04.492Z,99765.42
2023-05-10T01:16:39.381Z,99763.39
2023-05-10T01:17:13.398Z,99766.73
2023-05-10T01:17:48.437Z,99765.72
2023-05-10T01:18:22.681Z,99761.80
2023-05-10T01:18:55.880Z,99763.48
2023-05-10T01:19:32.637Z,99767.71
2023-05-10T01:20:06.492Z,99770.52
2023-05-10T01:20:44.591Z,99768.66
2023-05-10T01:21:20.782Z,99770.27
2023-05-10T01:22:12.551Z,99769.77
2023-05-10T01:22:52.036Z,99766.02
2023-05-10T01:23:45.969Z,99767.14
2023-05-10T01:24:18.919Z,99765.79
2023-05-10T01:25:10.926Z,99766.56
2023-05-10T01:26:02.503Z,99765.73
2023-05-10T01:26:47.690Z,99769.21
2023-05-10T01:27:21.056Z,99772.02
2023-05-10T01:28:00.087Z,99773.04
2023-05-10T01:28:51.732Z,99770.65
2023-05-10T01:29:34.282Z,99773.09
2023-05-10T01:30:15.449Z,99770.73
2023-05-10T01:30:52.665Z,99768.66
2023-05-10T01:31:25.924Z,99769.41
2023-05-10T01:32:17.804Z,99768.34
2023-05-10T01:32:51.738Z,99766.32
2023-05-10T01:33:43.575Z,99764.31
2023-05-10T01:34:24.055Z,99764.55
2023-05-10T01:35:03.078Z,99767.21
2023-05-10T01:35:36.228Z,99768.31
2023-05-10T01:36:28.113Z,99770.80
2023-05-10T01:37:07.185Z,99767.38
2023-05-10T01:37:58.202Z,99768.50
2023-05-10T01:38:38.628Z,99768.88
2023-05-10T01:39:11.863Z,99765.19
2023-05-10T01:39:53.820Z,99763.88
2023-05-10T01:40:32.967Z,99760.95
2023-05-10T01:41:14.390Z,99762.52
2023-05-10T01:41:47.576Z,99762.67
2023-05-10T01:42:28.385Z,99761.17
2023-05-10T01:43:03.917Z,99761.71
2023-05-10T01:43:46.363Z,99761.78
2023-05-10T01:44:26.025Z,99761.50
2023-05-10T01:45:13.880Z,99765.25
2023-05-10T01:46:01.118Z,99764.86
2023-05-10T01:46:39.789Z,99760.17
2023-05-10T01:47:15.731Z,99759.98
2023-05-10T01:47:54.822Z,99761.97
2023-05-10T01:48:29.896Z,99756.80
2023-05-10T01:49:03.802Z,99756.80
2023-05-10T01:49:41.173Z,99759.52
2023-05-10T01:50:19.471Z,99756.72
2023-05-10T01:50:53.518Z,99756.72
2023-05-10T01:51:28.853Z,99754.48
2023-05-10T01:52:08.270Z,99755.36
2023-05-10T01:52:43.517Z,99758.52
2023-05-10T01:53:19.962Z,99755.29
2023-05-10T01:53:59.529Z,99756.68
2023-05-10T01:54:34.152Z,99754.43
2023-05-10T01:55:09.115Z,99750.55
2023-05-10T01:55:49.907Z,99753.30
2023-05-10T01:56:25.482Z,99755.08
2023-05-10T01:57:04.310Z,99757.48
2023-05-10T01:57:40.735Z,99757.92
2023-05-10T01:58:20.335Z,99754.69
2023-05-10T01:58:54.059Z,99753.06
2023-05-10T01:59:30.923Z,99752.52
2023-05-10T02:00:05.490Z,99750.52
2023-05-10T02:00:41.121Z,99748.98
2023-05-10T02:01:14.894Z,99747.21
2023-05-10T02:01:48.913Z,99748.23
2023-05-10T02:02:22.644Z,99750.46
2023-05-10T02:02:56.647Z,99747.85
2023-05-10T02:03:32.304Z,99748.89
2023-05-10T02:04:07.146Z,99748.44
2023-05-10T02:04:41.894Z,99746.21
2023-05-10T02:05:16.786Z,99746.73
2023-05-10T02:05:51.129Z,99747.11
2023-05-10T02:06:25.491Z,99747.94
2023-05-10T02:06:58.795Z,99750.92
2023-05-10T02:07:33.720Z,99746.66
2023-05-10T02:08:07.961Z,99753.05
2023-05-10T02:08:41.483Z,99748.89
2023-05-10T02:09:15.428Z,99747.73
2023-05-10T02:09:49.271Z,99748.76
2023-05-10T02:10:22.412Z,99747.02
2023-05-10T02:10:56.868Z,99745.86
2023-05-10T02:11:30.933Z,99745.87
2023-05-10T02:12:05.148Z,99749.55
2023-05-10T02:12:40.655Z,99750.21
2023-05-10T02:13:15.291Z,99747.77
2023-05-10T02:13:49.609Z,99753.41
2023-05-10T02:14:25.563Z,99749.84
2023-05-10T02:15:00.569Z,99749.41
2023-05-10T02:15:34.459Z,99747.34
2023-05-10T02:16:08.524Z,99749.42
2023-05-10T02:16:42.247Z,99747.91
2023-05-10T02:17:15.476Z,99748.41
2023-05-10T02:17:48.975Z,99751.02
2023-05-10T02:18:23.592Z,99750.91
2023-05-10T02:18:58.367Z,99749.08
2023-05-10T02:19:31.464Z,99751.06
2023-05-10T02:20:06.033Z,99749.23
2023-05-10T02:20:39.854Z,99747.11
2023-05-10T02:21:14.485Z,99747.55
2023-05-10T02:21:47.865Z,99746.27
2023-05-10T02:22:21.663Z,99746.38
2023-05-10T02:22:55.884Z,99746.23
2023-05-10T02:23:29.697Z,99746.29
2023-05-10T02:24:03.798Z,99745.20
2023-05-10T02:24:38.081Z,99746.59
2023-05-10T02:25:12.308Z,99743.20
2023-05-10T02:25:46.532Z,99745.56
2023-05-10T02:26:22.615Z,99745.52
2023-05-10T02:26:59.243Z,99745.47
2023-05-10T02:27:32.867Z,99742.38
2023-05-10T02:28:07.124Z,99744.85
2023-05-10T02:28:41.585Z,99743.48
2023-05-10T02:29:15.728Z,99741.58
2023-05-10T02:29:49.060Z,99741.60
2023-05-10T02:30:23.601Z,99741.27
2023-05-10T02:30:57.388Z,99739.16
2023-05-10T02:31:33.344Z,99741.42
2023-05-10T02:32:07.418Z,99743.95
2023-05-10T02:32:40.951Z,99740.14
2023-05-10T02:33:14.824Z,99742.02
2023-05-10T02:33:48.301Z,99743.88
2023-05-10T02:34:22.735Z,99743.21
2023-05-10T02:34:56.101Z,99742.05
2023-05-10T02:35:29.441Z,99741.06
2023-05-10T02:36:03.905Z,99742.79
2023-05-10T02:36:38.089Z,99740.33
2023-05-10T02:37:11.661Z,99740.21
2023-05-10T02:37:45.236Z,99741.56
2023-05-10T02:38:20.611Z,99741.40
2023-05-10T02:38:54.476Z,99737.92
2023-05-10T02:39:29.768Z,99739.05
2023-05-10T02:40:04.619Z,99741.06
2023-05-10T02:40:38.101Z,99739.81
2023-05-10T02:41:12.329Z,99740.87
2023-05-10T02:41:47.368Z,99741.27
2023-05-10T02:42:24.754Z,99739.24
2023-05-10T02:42:59.913Z,99739.30
2023-05-10T02:43:33.830Z,99740.14
2023-05-10T02:44:07.992Z,99740.48
2023-05-10T02:44:42.417Z,99744.63
2023-05-10T02:45:18.744Z,99739.77
2023-05-10T02:45:52.294Z,99740.61
2023-05-10T02:46:25.439Z,99738.60
2023-05-10T02:46:59.756Z,99736.31
2023-05-10T02:47:33.035Z,99737.14
2023-05-10T02:48:06.503Z,99738.33
2023-05-10T02:48:39.898Z,99734.16
2023-05-10T02:49:13.185Z,99739.15
2023-05-10T02:49:46.751Z,99732.77
2023-05-10T02:50:20.967Z,99735.52
2023-05-10T02:50:56.233Z,99737.38
2023-05-10T02:51:32.911Z,99737.21
2023-05-10T02:52:08.201Z,99735.84
2023-05-10T02:52:47.484Z,99736.88
2023-05-10T02:53:23.909Z,99735.94
2023-05-10T02:53:58.573Z,99737.02
2023-05-10T02:54:34.667Z,99736.34
2023-05-10T02:55:10.516Z,99737.35
2023-05-10T02:55:46.344Z,99738.70
2023-05-10T02:56:26.974Z,99736.77
2023-05-10T02:57:01.801Z,99735.05
2023-05-10T02:57:35.680Z,99738.70
2023-05-10T02:58:08.786Z,99735.92
2023-05-10T02:58:42.068Z,99735.30
2023-05-10T02:59:15.325Z,99734.83
2023-05-10T02:59:48.530Z,99736.63
2023-05-10T03:00:21.973Z,99736.73
2023-05-10T03:00:55.143Z,99737.90
2023-05-10T03:01:28.383Z,99735.64
2023-05-10T03:02:01.895Z,99737.35
2023-05-10T03:02:35.321Z,99736.39
2023-05-10T03:03:08.868Z,99737.77
2023-05-10T03:03:42.273Z,99738.14
2023-05-10T03:04:15.361Z,99735.02
2023-05-10T03:04:48.406Z,99737.29
2023-05-10T03:05:21.663Z,99736.42
2023-05-10T03:05:59.166Z,99736.04
2023-05-10T03:06:32.544Z,99734.15
2023-05-10T03:07:06.015Z,99736.02
2023-05-10T03:07:39.216Z,99736.73
2023-05-10T03:08:12.576Z,99735.98
2023-05-10T03:08:46.500Z,99735.37
2023-05-10T03:09:21.072Z,99735.20
2023-05-10T03:09:54.414Z,99735.86
2023-05-10T03:10:28.907Z,99732.56
2023-05-10T03:11:01.878Z,99737.55
2023-05-10T03:11:40.920Z,99736.36
2023-05-10T03:12:24.635Z,99740.21
2023-05-10T03:13:20.973Z,99737.61
2023-05-10T03:13:54.102Z,99736.55
2023-05-10T03:14:44.874Z,99733.27
2023-05-10T03:15:26.398Z,99738.23
2023-05-10T03:16:06.161Z,99733.45
2023-05-10T03:16:53.734Z,99735.54
2023-05-10T03:17:36.126Z,99740.01
2023-05-10T03:18:12.248Z,99737.73
2023-05-10T03:18:49.360Z,99736.63
2023-05-10T03:19:28.797Z,99735.92
2023-05-10T03:20:05.794Z,99739.99
2023-05-10T03:20:48.478Z,99736.64
2023-05-10T03:21:24.256Z,99738.11
2023-05-10T03:21:59.946Z,99736.45
2023-05-10T03:22:35.898Z,99737.27
2023-05-10T03:23:12.593Z,99741.20
2023-05-10T03:23:49.326Z,99738.40
2023-05-10T03:24:24.476Z,99737.16
2023-05-10T03:25:00.938Z,99738.71
2023-05-10T03:25:34.681Z,99740.60
2023-05-10T03:26:08.757Z,99739.17
2023-05-10T03:26:44.731Z,99736.05
2023-05-10T03:27:18.559Z,99738.89
2023-05-10T03:27:53.244Z,99740.89
2023-05-10T03:28:27.276Z,99736.41
2023-05-10T03:29:00.914Z,99737.77
2023-05-10T03:29:34.453Z,99735.63
2023-05-10T03:30:09.972Z,99735.41
2023-05-10T03:30:44.440Z,99740.09
2023-05-10T03:31:18.393Z,99739.17
2023-05-10T03:31:51.529Z,99740.11
2023-05-10T03:32:24.915Z,99737.44
2023-05-10T03:32:58.301Z,99738.27
2023-05-10T03:33:31.584Z,99738.52
2023-05-10T03:34:04.755Z,99737.46
2023-05-10T03:34:42.321Z,99740.71
2023-05-10T03:35:15.519Z,99738.50
2023-05-10T03:35:49.044Z,99739.19
2023-05-10T03:36:22.212Z,99741.71
2023-05-10T03:36:55.387Z,99740.10
2023-05-10T03:37:28.572Z,99738.30
2023-05-10T03:38:02.061Z,99738.92
2023-05-10T03:38:35.309Z,99740.71
2023-05-10T03:39:08.543Z,99737.36
2023-05-10T03:39:41.823Z,99739.13
2023-05-10T03:40:15.320Z,99736.67
2023-05-10T03:40:48.571Z,99736.59
2023-05-10T03:41:21.902Z,99732.80
2023-05-10T03:41:55.077Z,99733.77
2023-05-10T03:42:28.467Z,99736.67
2023-05-10T03:43:01.654Z,99735.05
2023-05-10T03:43:35.116Z,99736.02
2023-05-10T03:44:08.219Z,99732.14
2023-05-10T03:44:41.455Z,99732.58
2023-05-10T03:45:14.959Z,99732.49
2023-05-10T03:45:48.025Z,99731.27
2023-05-10T03:46:21.345Z,99730.55
2023-05-10T03:46:54.543Z,99733.22
2023-05-10T03:47:27.826Z,99730.23
2023-05-10T03:48:01.278Z,99729.79
2023-05-10T03:48:34.732Z,99729.41
2023-05-10T03:49:07.788Z,99730.52
2023-05-10T03:49:40.917Z,99728.86
2023-05-10T03:50:14.320Z,99726.72
2023-05-10T03:50:47.806Z,99729.53
2023-05-10T03:51:21.523Z,99726.20
2023-05-10T03:51:54.734Z,99724.10
2023-05-10T03:52:27.768Z,99728.94
2023-05-10T03:53:01.025Z,99725.02
2023-05-10T03:53:34.210Z,99723.39
2023-05-10T03:54:07.340Z,99723.27
2023-05-10T03:54:40.378Z,99720.41
2023-05-10T03:55:13.739Z,99720.27
2023-05-10T03:55:47.334Z,99720.73
2023-05-10T03:56:21.874Z,99719.34
2023-05-10T03:56:54.997Z,99721.90
2023-05-10T03:57:28.121Z,99718.53
2023-05-10T03:58:01.310Z,99718.44
2023-05-10T03:58:34.481Z,99719.80
2023-05-10T03:59:10.720Z,99722.05
2023-05-10T03:59:43.851Z,99725.99
2023-05-10T04:00:17.694Z,99722.57
2023-05-10T04:00:52.141Z,99725.83
2023-05-10T04:01:25.297Z,99723.73
2023-05-10T04:01:58.504Z,99722.39
2023-05-10T04:02:32.092Z,99724.85
2023-05-10T04:03:05.552Z,99719.64
2023-05-10T04:03:39.466Z,99724.86
2023-05-10T04:04:12.947Z,99723.10
2023-05-10T04:04:46.378Z,99721.91
2023-05-10T04:05:19.593Z,99722.61
2023-05-10T04:06:00.094Z,99720.27
2023-05-10T04:06:33.494Z,99720.20
2023-05-10T04:07:06.622Z,99718.79
2023-05-10T04:07:39.783Z,99721.39
2023-05-10T04:08:12.952Z,99724.67
2023-05-10T04:08:46.415Z,99721.55
2023-05-10T04:09:19.668Z,99720.38
2023-05-10T04:09:53.497Z,99723.10
2023-05-10T04:10:26.738Z,99722.43
2023-05-10T04:11:07.126Z,99722.66
2023-05-10T04:11:40.225Z,99721.92
2023-05-10T04:12:13.483Z,99721.08
2023-05-10T04:12:46.635Z,99722.76
2023-05-10T04:13:20.268Z,99719.63
2023-05-10T04:13:53.324Z,99721.79
2023-05-10T04:14:26.579Z,99721.95
2023-05-10T04:14:59.746Z,99722.65
2023-05-10T04:15:32.986Z,99723.00
2023-05-10T04:16:06.524Z,99722.47
2023-05-10T04:16:39.846Z,99724.02
2023-05-10T04:17:13.150Z,99722.45
2023-05-10T04:17:46.572Z,99725.34
2023-05-10T04:18:19.974Z,99722.57
2023-05-10T04:18:53.165Z,99721.54
2023-05-10T04:19:30.348Z,99726.40
2023-05-10T04:20:04.833Z,99724.29
2023-05-10T04:20:38.177Z,99720.94
2023-05-10T04:21:14.771Z,99719.75
2023-05-10T04:21:47.872Z,99720.59
2023-05-10T04:22:21.304Z,99721.75
2023-05-10T04:22:54.841Z,99720.88
2023-05-10T04:23:28.434Z,99721.90
2023-05-10T04:24:02.734Z,99720.31
2023-05-10T04:24:35.992Z,99720.30
2023-05-10T04:25:09.591Z,99721.73
2023-05-10T04:25:42.838Z,99722.15
2023-05-10T04:26:16.715Z,99721.94
2023-05-10T04:26:49.901Z,99726.63
2023-05-10T04:27:23.105Z,99726.73
2023-05-10T04:27:56.282Z,99725.69
2023-05-10T04:28:29.667Z,99726.46
2023-05-10T04:29:03.689Z,99725.74
2023-05-10T04:29:36.661Z,99729.27
2023-05-10T04:30:10.041Z,99725.89
2023-05-10T04:30:43.249Z,99728.30
2023-05-10T04:31:16.425Z,99730.12
2023-05-10T04:31:50.182Z,99728.51
2023-05-10T04:32:23.461Z,99730.11
2023-05-10T04:32:56.617Z,99731.23
2023-05-10T04:33:30.051Z,99731.46
2023-05-10T04:34:03.156Z,99730.11
2023-05-10T04:34:36.363Z,99730.05
2023-05-10T04:35:11.213Z,99730.98
2023-05-10T04:35:45.871Z,99731.77
2023-05-10T04:36:19.041Z,99731.23
2023-05-10T04:36:52.134Z,99734.79
2023-05-10T04:37:25.272Z,99731.70
2023-05-10T04:37:58.487Z,99735.42
2023-05-10T04:38:31.814Z,99734.67
2023-05-10T04:39:05.421Z,99734.66
2023-05-10T04:39:40.308Z,99736.36
2023-05-10T04:40:15.593Z,99734.10
2023-05-10T04:40:49.074Z,99733.95
2023-05-10T04:41:22.249Z,99737.45
2023-05-10T04:41:55.468Z,99735.23
2023-05-10T04:42:28.721Z,99733.86
2023-05-10T04:43:01.989Z,99735.52
2023-05-10T04:43:35.369Z,99733.87
2023-05-10T04:44:08.596Z,99733.27
2023-05-10T04:44:42.069Z,99735.92
2023-05-10T04:45:18.220Z,99728.73
2023-05-10T04:45:51.537Z,99736.37
2023-05-10T04:46:24.629Z,99734.35
2023-05-10T04:46:57.867Z,99732.06
2023-05-10T04:47:30.863Z,99734.63
2023-05-10T04:48:04.165Z,99732.22
2023-05-10T04:48:37.394Z,99733.31
2023-05-10T04:49:10.492Z,99732.41
2023-05-10T04:49:43.862Z,99733.11
2023-05-10T04:50:17.230Z,99728.14
2023-05-10T04:50:50.528Z,99732.17
2023-05-10T04:51:23.571Z,99729.94
2023-05-10T04:51:57.290Z,99733.75
2023-05-10T04:52:30.435Z,99728.27
2023-05-10T04:53:03.779Z,99733.45
2023-05-10T04:53:37.056Z,99730.69
2023-05-10T04:54:10.570Z,99729.63
2023-05-10T04:54:43.593Z,99730.27
2023-05-10T04:55:17.246Z,99728.45
2023-05-10T04:55:50.557Z,99731.02
2023-05-10T04:56:23.651Z,99728.29
2023-05-10T04:56:56.701Z,99732.14
2023-05-10T04:57:29.873Z,99729.38
2023-05-10T04:58:03.993Z,99730.90
2023-05-10T04:58:37.139Z,99732.04
2023-05-10T04:59:10.225Z,99732.20
2023-05-10T04:59:43.803Z,99731.38
2023-05-10T05:00:17.285Z,99730.15
2023-05-10T05:00:50.697Z,99729.24
2023-05-10T05:01:24.414Z,99730.31
2023-05-10T05:01:57.856Z,99728.83
2023-05-10T05:02:31.930Z,99732.65
2023-05-10T05:03:05.481Z,99728.58
2023-05-10T05:03:38.755Z,99729.12
2023-05-10T05:04:12.156Z,99731.20
2023-05-10T05:04:45.511Z,99731.86
2023-05-10T05:05:18.566Z,99732.70
2023-05-10T05:05:51.723Z,99732.90
2023-05-10T05:06:26.183Z,99732.39
2023-05-10T05:06:59.394Z,99730.45
2023-05-10T05:07:32.577Z,99734.16
2023-05-10T05:08:05.815Z,99733.23
2023-05-10T05:08:38.999Z,99734.34
2023-05-10T05:09:12.090Z,99735.53
2023-05-10T05:09:45.281Z,99730.62
2023-05-10T05:10:18.806Z,99731.03
2023-05-10T05:10:52.099Z,99729.66
2023-05-10T05:11:25.109Z,99727.05
2023-05-10T05:11:58.169Z,99726.63
2023-05-10T05:12:31.345Z,99729.43
2023-05-10T05:13:04.639Z,99729.39
2023-05-10T05:13:38.420Z,99727.42
2023-05-10T05:14:11.521Z,99728.65
2023-05-10T05:14:44.607Z,99728.58
2023-05-10T05:15:18.092Z,99729.01
2023-05-10T05:15:51.274Z,99730.41
2023-05-10T05:16:24.549Z,99728.17
2023-05-10T05:16:57.812Z,99729.63
2023-05-10T05:17:33.555Z,99727.65
2023-05-10T05:18:06.743Z,99728.41
2023-05-10T05:18:40.009Z,99724.86
2023-05-10T05:19:13.137Z,99727.66
2023-05-10T05:19:46.301Z,99727.81
2023-05-10T05:20:20.134Z,99727.77
2023-05-10T05:20:53.258Z,99727.98
2023-05-10T05:21:28.085Z,99726.76
2023-05-10T05:22:01.261Z,99727.89
2023-05-10T05:22:34.368Z,99730.63
2023-05-10T05:23:07.451Z,99724.70
2023-05-10T05:23:40.845Z,99726.92
2023-05-10T05:24:14.105Z,99726.30
2023-05-10T05:24:47.629Z,99728.73
2023-05-10T05:25:20.966Z,99725.58
2023-05-10T05:25:54.774Z,99727.29
2023-05-10T05:26:28.016Z,99728.55
2023-05-10T05:27:01.952Z,99723.25
2023-05-10T05:27:35.059Z,99724.02
2023-05-10T05:28:08.125Z,99727.78
2023-05-10T05:28:41.182Z,99727.92
2023-05-10T05:29:14.252Z,99725.88
2023-05-10T05:29:47.380Z,99722.05
2023-05-10T05:30:20.596Z,99728.06
2023-05-10T05:30:54.229Z,99725.16
2023-05-10T05:31:27.586Z,99724.43
2023-05-10T05:32:01.062Z,99725.45
2023-05-10T05:32:34.295Z,99724.34
2023-05-10T05:33:07.548Z,99726.30
2023-05-10T05:33:40.752Z,99724.23
2023-05-10T05:34:13.945Z,99723.38
2023-05-10T05:34:47.152Z,99724.48
2023-05-10T05:35:20.285Z,99725.08
2023-05-10T05:35:53.727Z,99722.82
2023-05-10T05:36:26.949Z,99720.27
2023-05-10T05:37:00.028Z,99721.86
2023-05-10T05:37:33.275Z,99721.41
2023-05-10T05:38:07.263Z,99722.39
2023-05-10T05:38:40.359Z,99722.81
2023-05-10T05:39:13.502Z,99722.57
2023-05-10T05:39:46.877Z,99724.57
2023-05-10T05:40:20.028Z,99723.04
2023-05-10T05:40:53.310Z,99724.48
2023-05-10T05:41:26.520Z,99725.42
2023-05-10T05:41:59.854Z,99724.20
2023-05-10T05:42:33.208Z,99723.55
2023-05-10T05:43:06.399Z,99724.17
2023-05-10T05:43:39.584Z,99721.79
2023-05-10T05:44:12.723Z,99724.67
2023-05-10T05:44:46.048Z,99722.51
2023-05-10T05:45:19.553Z,99727.35
2023-05-10T05:45:56.273Z,99725.03
2023-05-10T05:46:29.425Z,99723.52
2023-05-10T05:47:03.035Z,99725.40
2023-05-10T05:47:36.087Z,99726.41
2023-05-10T05:48:09.364Z,99724.91
2023-05-10T05:48:42.512Z,99722.21
2023-05-10T05:49:15.791Z,99725.06
2023-05-10T05:49:48.864Z,99724.60
2023-05-10T05:50:22.087Z,99725.58
2023-05-10T05:50:56.664Z,99721.73
2023-05-10T05:51:30.054Z,99725.30
2023-05-10T05:52:03.704Z,99725.63
2023-05-10T05:52:37.272Z,99723.23
2023-05-10T05:53:11.134Z,99720.64
2023-05-10T05:53:44.325Z,99725.13
2023-05-10T05:54:17.549Z,99721.27
2023-05-10T05:54:50.722Z,99726.54
2023-05-10T05:55:25.265Z,99720.92
2023-05-10T05:55:59.126Z,99721.07
2023-05-10T05:56:32.193Z,99720.85
2023-05-10T05:57:05.736Z,99718.98
2023-05-10T05:57:39.054Z,99725.71
2023-05-10T05:58:12.489Z,99723.77
2023-05-10T05:58:45.952Z,99720.33
2023-05-10T05:59:19.056Z,99717.13
2023-05-10T05:59:52.096Z,99718.55
2023-05-10T06:00:25.334Z,99713.23
2023-05-10T06:00:58.616Z,99716.83
2023-05-10T06:01:31.843Z,99715.44
2023-05-10T06:02:05.078Z,99716.77
2023-05-10T06:02:38.410Z,99713.13
2023-05-10T06:03:11.913Z,99714.14
2023-05-10T06:03:44.975Z,99713.73
2023-05-10T06:04:18.449Z,99715.60
2023-05-10T06:04:51.761Z,99718.65
2023-05-10T06:05:24.988Z,99719.92
2023-05-10T06:05:58.316Z,99716.96
2023-05-10T06:06:31.632Z,99719.98
2023-05-10T06:07:04.981Z,99720.80
2023-05-10T06:07:38.164Z,99720.04
2023-05-10T06:08:11.427Z,99721.66
2023-05-10T06:08:44.629Z,99720.27
2023-05-10T06:09:17.704Z,99719.55
2023-05-10T06:09:50.988Z,99722.61
2023-05-10T06:10:24.038Z,99722.55
2023-05-10T06:10:57.379Z,99723.95
2023-05-10T06:11:31.758Z,99723.02
2023-05-10T06:12:04.938Z,99723.45
2023-05-10T06:12:37.987Z,99721.50
2023-05-10T06:13:11.278Z,99723.16
2023-05-10T06:13:44.545Z,99718.06
2023-05-10T06:14:17.620Z,99724.28
2023-05-10T06:14:50.729Z,99724.02
2023-05-10T06:15:24.030Z,99721.40
2023-05-10T06:15:57.069Z,99724.31
2023-05-10T06:16:30.194Z,99727.02
2023-05-10T06:17:05.371Z,99726.83
2023-05-10T06:17:40.000Z,99726.25
2023-05-10T06:18:13.059Z,99722.63
2023-05-10T06:18:46.345Z,99722.75
2023-05-10T06:19:19.500Z,99724.23
2023-05-10T06:19:52.649Z,99726.52
2023-05-10T06:20:26.198Z,99724.64
2023-05-10T06:20:59.124Z,99724.77
2023-05-10T06:21:32.362Z,99726.30
2023-05-10T06:22:05.641Z,99724.67
2023-05-10T06:22:38.713Z,99728.98
2023-05-10T06:23:12.297Z,99724.69
2023-05-10T06:23:45.725Z,99724.98
2023-05-10T06:24:18.929Z,99725.43
2023-05-10T06:24:52.114Z,99722.17
2023-05-10T06:25:25.517Z,99718.20
2023-05-10T06:25:58.833Z,99724.33
2023-05-10T06:26:32.202Z,99721.55
2023-05-10T06:27:05.645Z,99722.33
2023-05-10T06:27:38.758Z,99723.21
2023-05-10T06:28:11.884Z,99725.06
2023-05-10T06:28:44.886Z,99720.11
2023-05-10T06:29:18.067Z,99721.48
2023-05-10T06:29:56.368Z,99722.30
2023-05-10T06:30:32.380Z,99721.77
2023-05-10T06:31:06.197Z,99721.80
2023-05-10T06:31:39.372Z,99720.09
2023-05-10T06:32:12.588Z,99717.59
2023-05-10T06:32:46.649Z,99722.05
2023-05-10T06:33:19.939Z,99723.27
2023-05-10T06:33:54.208Z,99722.23
2023-05-10T06:34:29.188Z,99718.34
2023-05-10T06:35:02.282Z,99722.76
2023-05-10T06:35:35.305Z,99721.40
2023-05-10T06:36:08.521Z,99721.33
2023-05-10T06:36:42.289Z,99724.25
2023-05-10T06:37:15.507Z,99724.48
2023-05-10T06:37:48.718Z,99723.32
2023-05-10T06:38:22.069Z,99719.08
2023-05-10T06:38:55.321Z,99721.29
2023-05-10T06:39:29.941Z,99721.46
2023-05-10T06:40:03.157Z,99721.91
2023-05-10T06:40:37.152Z,99722.23
2023-05-10T06:41:10.398Z,99720.35
2023-05-10T06:41:43.480Z,99724.63
2023-05-10T06:42:16.586Z,99726.29
2023-05-10T06:42:49.703Z,99720.80
2023-05-10T06:43:23.037Z,99726.80
2023-05-10T06:43:56.218Z,99722.20